Time;durP1;ratioP1;P1;durP2;ratioP2;P2;SDS_P1;SDS_P2;PMS_P1;PMS_P2;Temp;Humidity;BMP_temperature;BMP_pressure;BME280_temperature;BME280_humidity;BME280_pressure;Samples;Min_cycle;Max_cycle;Signal;HPM_P1;HPM_P2
2022/11/07 00:01:56;;;;;;;3.77;2.07;;;;;;;;;;4996908;28;20320;-76
2022/11/07 00:04:24;;;;;;;2.73;2.40;;;;;;;;;;5016058;28;20204;-77
2022/11/07 00:06:52;;;;;;;4.67;2.33;;;;;;;;;;5016019;28;20235;-76
2022/11/07 00:09:21;;;;;;;3.77;2.20;;;;;;;;;;5002806;28;20232;-76
2022/11/07 00:11:51;;;;;;;2.90;2.37;;;;;;;;;;5015502;28;20244;-76
2022/11/07 00:14:19;;;;;;;3.40;2.40;;;;;;;;;;5016432;28;20729;-77
2022/11/07 00:16:48;;;;;;;2.93;2.00;;;;;;;;;;5015275;28;20243;-75
2022/11/07 00:19:18;;;;;;;4.60;2.10;;;;;;;;;;5016027;28;20347;-78
2022/11/07 00:21:47;;;;;;;3.60;2.37;;;;;;;;;;5015841;28;20694;-78
2022/11/07 00:24:16;;;;;;;2.80;2.17;;;;;;;;;;5015517;28;20275;-79
2022/11/07 00:26:45;;;;;;;3.27;2.50;;;;;;;;;;5013221;28;20224;-77
2022/11/07 00:29:15;;;;;;;2.50;2.00;;;;;;;;;;5015377;28;20258;-81
2022/11/07 00:31:44;;;;;;;4.03;2.27;;;;;;;;;;5015483;28;20255;-80
2022/11/07 00:34:12;;;;;;;3.43;2.20;;;;;;;;;;5014482;28;20204;-80
2022/11/07 00:36:40;;;;;;;3.73;2.17;;;;;;;;;;5015354;28;20246;-79
2022/11/07 00:39:10;;;;;;;4.00;2.40;;;;;;;;;;5014979;28;20340;-80
2022/11/07 00:41:38;;;;;;;4.23;2.30;;;;;;;;;;5014084;28;20275;-81
2022/11/07 00:44:07;;;;;;;3.03;2.23;;;;;;;;;;5014838;28;20314;-81
2022/11/07 00:46:37;;;;;;;1.93;1.73;;;;;;;;;;5015089;28;20213;-81
2022/11/07 00:49:05;;;;;;;4.13;2.20;;;;;;;;;;5015208;28;20719;-82
2022/11/07 00:51:34;;;;;;;2.70;2.00;;;;;;;;;;5014894;28;20256;-81
2022/11/07 00:54:03;;;;;;;3.83;2.20;;;;;;;;;;5014604;28;20204;-81
2022/11/07 00:56:31;;;;;;;2.43;1.80;;;;;;;;;;5015117;28;20208;-81
2022/11/07 00:59:00;;;;;;;4.47;2.30;;;;;;;;;;5014611;28;20219;-81
2022/11/07 01:01:30;;;;;;;4.47;2.20;;;;;;;;;;5015037;28;20221;-81
2022/11/07 01:06:46;;;;;;;2.80;2.27;;;;;;;;;;5014750;28;20180;-81
2022/11/07 01:09:16;;;;;;;2.20;2.00;;;;;;;;;;5014930;28;20244;-81
2022/11/07 01:11:45;;;;;;;3.00;2.40;;;;;;;;;;5014695;28;20644;-80
2022/11/07 01:14:15;;;;;;;4.67;2.67;;;;;;;;;;5014588;28;20216;-81
2022/11/07 01:16:44;;;;;;;4.73;2.60;;;;;;;;;;5014284;28;20240;-81
2022/11/07 01:19:13;;;;;;;4.00;2.10;;;;;;;;;;5014528;28;20204;-81
2022/11/07 01:21:43;;;;;;;2.87;2.30;;;;;;;;;;5014621;28;20260;-79
2022/11/07 01:24:12;;;;;;;3.40;2.40;;;;;;;;;;5014582;28;20235;-81
2022/11/07 01:26:41;;;;;;;3.40;2.30;;;;;;;;;;5014454;28;20208;-78
2022/11/07 01:29:09;;;;;;;3.70;2.30;;;;;;;;;;5015193;28;20251;-76
2022/11/07 01:31:38;;;;;;;3.87;2.20;;;;;;;;;;5014685;28;20235;-78
2022/11/07 01:34:06;;;;;;;4.23;2.30;;;;;;;;;;5014824;28;20616;-79
2022/11/07 01:36:37;;;;;;;5.73;2.13;;;;;;;;;;5014488;28;20259;-78
2022/11/07 01:39:05;;;;;;;3.83;2.40;;;;;;;;;;5014604;28;20224;-78
2022/11/07 01:41:35;;;;;;;2.93;2.17;;;;;;;;;;5014790;28;20248;-77
2022/11/07 01:44:04;;;;;;;2.93;2.30;;;;;;;;;;5013950;28;20303;-78
2022/11/07 01:46:34;;;;;;;3.13;2.40;;;;;;;;;;5013791;28;20295;-77
2022/11/07 01:49:05;;;;;;;4.27;2.10;;;;;;;;;;5014720;28;20242;-79
2022/11/07 01:51:35;;;;;;;2.50;2.00;;;;;;;;;;5014634;28;20599;-78
2022/11/07 01:54:06;;;;;;;3.33;2.30;;;;;;;;;;5014491;28;20228;-78
2022/11/07 01:56:37;;;;;;;2.63;2.00;;;;;;;;;;5014185;28;20270;-78
2022/11/07 01:59:07;;;;;;;4.70;2.13;;;;;;;;;;5014134;28;20266;-79
2022/11/07 02:01:35;;;;;;;3.03;2.10;;;;;;;;;;5013974;28;20270;-78
2022/11/07 02:04:05;;;;;;;4.40;2.33;;;;;;;;;;5014395;28;20307;-77
2022/11/07 02:06:38;;;;;;;4.57;2.50;;;;;;;;;;5014317;28;20232;-78
2022/11/07 02:09:08;;;;;;;3.73;2.10;;;;;;;;;;5014272;28;20184;-78
2022/11/07 02:11:36;;;;;;;2.97;2.23;;;;;;;;;;5014448;28;20311;-79
2022/11/07 02:14:05;;;;;;;6.20;2.20;;;;;;;;;;5014705;28;20291;-79
2022/11/07 02:16:35;;;;;;;3.33;2.27;;;;;;;;;;5014167;28;20227;-79
2022/11/07 02:19:06;;;;;;;2.70;2.10;;;;;;;;;;5014014;28;20200;-79
2022/11/07 02:21:44;;;;;;;3.93;2.30;;;;;;;;;;5014260;28;20330;-79
2022/11/07 02:24:16;;;;;;;5.93;2.43;;;;;;;;;;5014755;28;20673;-77
2022/11/07 02:26:46;;;;;;;3.10;2.00;;;;;;;;;;5014072;28;20192;-78
2022/11/07 02:29:14;;;;;;;4.10;2.27;;;;;;;;;;5014369;28;20215;-78
2022/11/07 02:31:43;;;;;;;3.47;2.37;;;;;;;;;;5014057;28;20621;-78
2022/11/07 02:34:11;;;;;;;4.13;2.50;;;;;;;;;;5014397;28;20200;-79
2022/11/07 02:36:40;;;;;;;4.63;2.40;;;;;;;;;;5013962;28;20241;-78
2022/11/07 02:39:08;;;;;;;3.93;2.10;;;;;;;;;;5013641;28;20236;-81
2022/11/07 02:41:38;;;;;;;5.30;2.30;;;;;;;;;;5013836;28;20267;-81
2022/11/07 02:44:09;;;;;;;4.47;2.30;;;;;;;;;;5013145;28;20267;-81
2022/11/07 02:46:38;;;;;;;4.50;2.40;;;;;;;;;;5013412;28;20192;-82
2022/11/07 02:49:06;;;;;;;3.00;2.13;;;;;;;;;;5013190;28;20204;-81
2022/11/07 02:51:35;;;;;;;6.40;2.40;;;;;;;;;;5013402;28;20564;-81
2022/11/07 02:54:03;;;;;;;5.20;2.33;;;;;;;;;;5013077;28;20239;-81
2022/11/07 02:56:32;;;;;;;4.43;2.10;;;;;;;;;;5013308;28;20208;-81
2022/11/07 02:59:02;;;;;;;4.03;2.30;;;;;;;;;;5016590;28;20216;-79
2022/11/07 03:01:30;;;;;;;6.70;2.70;;;;;;;;;;5017172;28;20263;-77
2022/11/07 03:03:59;;;;;;;4.73;2.50;;;;;;;;;;5017591;28;20227;-76
2022/11/07 03:06:27;;;;;;;3.73;2.40;;;;;;;;;;5017014;28;20287;-76
2022/11/07 03:08:56;;;;;;;3.53;2.03;;;;;;;;;;5016998;28;20657;-76
2022/11/07 03:11:24;;;;;;;2.80;2.40;;;;;;;;;;5017036;28;20622;-76
2022/11/07 03:13:53;;;;;;;5.33;2.20;;;;;;;;;;5016315;28;20235;-76
2022/11/07 03:16:23;;;;;;;2.13;1.90;;;;;;;;;;5016490;28;20688;-75
2022/11/07 03:18:52;;;;;;;4.33;2.03;;;;;;;;;;5016675;28;20243;-76
2022/11/07 03:21:20;;;;;;;3.73;1.80;;;;;;;;;;5016424;28;20270;-77
2022/11/07 03:23:49;;;;;;;3.83;2.17;;;;;;;;;;5011035;28;20266;-76
2022/11/07 03:26:17;;;;;;;4.47;2.17;;;;;;;;;;4997257;28;20201;-76
2022/11/07 03:28:45;;;;;;;2.73;1.77;;;;;;;;;;5005382;28;20247;-76
2022/11/07 03:31:14;;;;;;;3.37;1.83;;;;;;;;;;5016465;28;20271;-76
2022/11/07 03:33:44;;;;;;;2.73;2.10;;;;;;;;;;5016473;28;20283;-76
2022/11/07 03:36:12;;;;;;;3.67;2.00;;;;;;;;;;5015586;28;20725;-76
2022/11/07 03:38:41;;;;;;;3.23;2.17;;;;;;;;;;5016743;28;20739;-76
2022/11/07 03:41:15;;;;;;;2.87;2.07;;;;;;;;;;5016370;28;20709;-76
2022/11/07 03:43:44;;;;;;;3.30;2.03;;;;;;;;;;5015508;28;20570;-75
2022/11/07 03:46:13;;;;;;;4.00;2.00;;;;;;;;;;5015258;28;20300;-76
2022/11/07 03:48:41;;;;;;;3.40;1.80;;;;;;;;;;5009030;28;20240;-76
2022/11/07 03:51:11;;;;;;;3.50;1.60;;;;;;;;;;5010733;28;20278;-75
2022/11/07 03:53:40;;;;;;;3.40;1.87;;;;;;;;;;5015980;28;20243;-75
2022/11/07 03:56:09;;;;;;;7.60;2.30;;;;;;;;;;5016254;28;20266;-76
2022/11/07 03:58:38;;;;;;;4.63;2.03;;;;;;;;;;5012305;28;20575;-76
2022/11/07 04:01:09;;;;;;;5.10;1.90;;;;;;;;;;4997159;28;20257;-75
2022/11/07 04:03:37;;;;;;;4.47;1.97;;;;;;;;;;4996816;28;20267;-76
2022/11/07 04:06:06;;;;;;;4.43;1.90;;;;;;;;;;4995870;28;20251;-76
2022/11/07 04:08:36;;;;;;;5.30;2.17;;;;;;;;;;4996072;28;20242;-76
2022/11/07 04:11:04;;;;;;;4.53;1.93;;;;;;;;;;4996668;28;20689;-76
2022/11/07 04:19:02;;;;;;;4.47;1.97;;;;;;;;;;4996698;28;20612;-76
2022/11/07 04:21:30;;;;;;;2.23;1.67;;;;;;;;;;4996393;28;20318;-78
2022/11/07 04:24:00;;;;;;;6.20;1.83;;;;;;;;;;4996230;28;20320;-77
2022/11/07 04:29:14;;;;;;;4.30;1.73;;;;;;;;;;4996495;28;20272;-77
2022/11/07 04:31:43;;;;;;;4.90;2.00;;;;;;;;;;4996485;28;20261;-78
2022/11/07 04:34:11;;;;;;;3.13;1.83;;;;;;;;;;4996229;28;20248;-78
2022/11/07 04:36:40;;;;;;;3.67;1.87;;;;;;;;;;4996100;28;20209;-79
2022/11/07 04:39:10;;;;;;;3.90;1.73;;;;;;;;;;4996523;28;20246;-79
2022/11/07 04:41:38;;;;;;;3.67;1.60;;;;;;;;;;4995841;28;20268;-78
2022/11/07 04:44:07;;;;;;;2.13;1.77;;;;;;;;;;4995429;28;20312;-77
2022/11/07 04:46:35;;;;;;;3.70;2.00;;;;;;;;;;4996107;28;20243;-77
2022/11/07 04:49:04;;;;;;;3.73;2.20;;;;;;;;;;4996055;28;20704;-77
2022/11/07 04:51:32;;;;;;;2.53;1.80;;;;;;;;;;4995615;28;20225;-78
2022/11/07 04:54:00;;;;;;;4.37;2.07;;;;;;;;;;4995815;28;20243;-79
2022/11/07 04:56:30;;;;;;;4.70;1.90;;;;;;;;;;4995971;28;20316;-79
2022/11/07 04:59:02;;;;;;;4.23;2.03;;;;;;;;;;4995512;28;20221;-78
2022/11/07 05:01:30;;;;;;;3.97;2.03;;;;;;;;;;4995309;28;20232;-78
2022/11/07 05:03:59;;;;;;;4.07;2.00;;;;;;;;;;4995759;28;20229;-78
2022/11/07 05:06:27;;;;;;;3.03;2.07;;;;;;;;;;4995380;28;20209;-78
2022/11/07 05:08:56;;;;;;;3.10;1.97;;;;;;;;;;4995370;28;20237;-78
2022/11/07 05:11:24;;;;;;;3.67;2.03;;;;;;;;;;4995476;28;20236;-78
2022/11/07 05:13:54;;;;;;;3.10;1.90;;;;;;;;;;4995011;28;20236;-79
2022/11/07 05:16:23;;;;;;;4.63;1.93;;;;;;;;;;4995054;28;20213;-79
2022/11/07 05:18:51;;;;;;;5.33;1.97;;;;;;;;;;4995451;28;20197;-80
2022/11/07 05:21:20;;;;;;;3.77;1.90;;;;;;;;;;4994159;28;20652;-81
2022/11/07 05:23:47;;;;;;;2.77;1.87;;;;;;;;;;4994754;28;20237;-80
2022/11/07 05:26:16;;;;;;;6.20;2.37;;;;;;;;;;4994963;28;20205;-81
2022/11/07 05:28:45;;;;;;;6.80;1.80;;;;;;;;;;4994758;28;20251;-81
2022/11/07 05:31:15;;;;;;;4.50;1.90;;;;;;;;;;4995322;28;20267;-78
2022/11/07 05:33:44;;;;;;;2.97;1.80;;;;;;;;;;4994944;28;20224;-79
2022/11/07 05:36:13;;;;;;;3.20;1.73;;;;;;;;;;4995318;28;20670;-79
2022/11/07 05:38:42;;;;;;;7.00;1.97;;;;;;;;;;4995124;28;20229;-79
2022/11/07 05:41:11;;;;;;;4.30;1.70;;;;;;;;;;4994802;28;20660;-79
2022/11/07 05:43:39;;;;;;;4.50;2.20;;;;;;;;;;4994329;28;20735;-79
2022/11/07 05:46:08;;;;;;;2.67;1.90;;;;;;;;;;4994904;28;20221;-79
2022/11/07 05:48:38;;;;;;;3.70;1.90;;;;;;;;;;4994757;28;20305;-80
2022/11/07 05:51:07;;;;;;;7.43;2.20;;;;;;;;;;4993901;28;20303;-79
2022/11/07 05:53:36;;;;;;;3.33;1.90;;;;;;;;;;4994826;28;20256;-78
2022/11/07 05:56:04;;;;;;;4.70;1.90;;;;;;;;;;4995115;28;20545;-78
2022/11/07 05:58:33;;;;;;;3.60;1.90;;;;;;;;;;4994015;28;20267;-79
2022/11/07 06:01:02;;;;;;;4.57;1.70;;;;;;;;;;4994732;28;20662;-78
2022/11/07 06:03:31;;;;;;;4.73;1.90;;;;;;;;;;4994873;28;20263;-78
2022/11/07 06:06:01;;;;;;;3.37;1.87;;;;;;;;;;4993855;28;20690;-78
2022/11/07 06:08:29;;;;;;;3.10;1.77;;;;;;;;;;4994847;28;20181;-79
2022/11/07 06:10:58;;;;;;;4.50;1.80;;;;;;;;;;4994303;28;20296;-79
2022/11/07 06:13:26;;;;;;;6.63;2.20;;;;;;;;;;4994648;28;20224;-78
2022/11/07 06:15:55;;;;;;;4.40;2.00;;;;;;;;;;4994895;28;20697;-78
2022/11/07 06:18:23;;;;;;;4.67;1.87;;;;;;;;;;4994417;28;20228;-78
2022/11/07 06:20:52;;;;;;;5.93;1.97;;;;;;;;;;4994026;28;20301;-79
2022/11/07 06:23:22;;;;;;;2.83;1.87;;;;;;;;;;4994649;28;20237;-79
2022/11/07 06:25:51;;;;;;;4.47;1.80;;;;;;;;;;4994233;28;20221;-79
2022/11/07 06:28:19;;;;;;;5.20;1.90;;;;;;;;;;4994051;28;20205;-77
2022/11/07 06:30:48;;;;;;;5.23;2.20;;;;;;;;;;4994775;28;20229;-78
2022/11/07 06:33:17;;;;;;;4.37;1.80;;;;;;;;;;4998658;28;20263;-78
2022/11/07 06:35:47;;;;;;;5.13;1.70;;;;;;;;;;4998592;28;20271;-79
2022/11/07 06:38:16;;;;;;;6.10;1.97;;;;;;;;;;4998062;28;20249;-79
2022/11/07 06:40:45;;;;;;;4.43;2.00;;;;;;;;;;4998174;28;20653;-77
2022/11/07 06:43:14;;;;;;;3.87;1.70;;;;;;;;;;4998472;28;20557;-79
2022/11/07 06:45:44;;;;;;;4.23;1.77;;;;;;;;;;4997762;28;20221;-76
2022/11/07 06:48:13;;;;;;;4.33;1.90;;;;;;;;;;4996916;28;20271;-77
2022/11/07 06:50:41;;;;;;;3.57;1.80;;;;;;;;;;4997509;28;20272;-78
2022/11/07 06:53:10;;;;;;;6.57;2.00;;;;;;;;;;4998186;28;20696;-79
2022/11/07 06:55:40;;;;;;;7.43;1.80;;;;;;;;;;4997597;28;20672;-78
2022/11/07 06:58:10;;;;;;;5.93;2.00;;;;;;;;;;4997634;28;20217;-77
2022/11/07 07:00:38;;;;;;;4.53;2.00;;;;;;;;;;4998186;28;20236;-79
2022/11/07 07:03:07;;;;;;;3.83;1.80;;;;;;;;;;4998054;28;20726;-78
2022/11/07 07:05:36;;;;;;;5.90;1.97;;;;;;;;;;4997949;28;20559;-78
2022/11/07 07:08:04;;;;;;;4.47;1.80;;;;;;;;;;4997894;28;20302;-78
2022/11/07 07:10:35;;;;;;;6.33;1.70;;;;;;;;;;4997984;28;20267;-79
2022/11/07 07:13:04;;;;;;;3.87;1.73;;;;;;;;;;4997918;28;20264;-78
2022/11/07 07:15:34;;;;;;;6.33;1.93;;;;;;;;;;4997727;28;20197;-79
2022/11/07 07:18:18;;;;;;;3.87;2.07;;;;;;;;;;4998202;28;20209;-78
2022/11/07 07:20:46;;;;;;;5.87;2.00;;;;;;;;;;4997869;28;20227;-78
2022/11/07 07:23:15;;;;;;;7.13;2.07;;;;;;;;;;4997346;28;20236;-80
2022/11/07 07:25:44;;;;;;;6.43;2.00;;;;;;;;;;4997552;28;20243;-78
2022/11/07 07:28:12;;;;;;;7.00;2.33;;;;;;;;;;4997702;28;20255;-79
2022/11/07 07:30:42;;;;;;;5.30;1.80;;;;;;;;;;4997690;28;20649;-77
2022/11/07 07:33:19;;;;;;;5.20;1.97;;;;;;;;;;4997623;28;20201;-78
2022/11/07 07:35:47;;;;;;;4.00;1.50;;;;;;;;;;4996913;28;20249;-77
2022/11/07 07:38:16;;;;;;;4.50;1.77;;;;;;;;;;4997377;28;20256;-78
2022/11/07 07:40:44;;;;;;;5.20;1.60;;;;;;;;;;4997118;28;20205;-79
2022/11/07 07:43:13;;;;;;;5.03;1.67;;;;;;;;;;4996446;28;20232;-80
2022/11/07 07:45:43;;;;;;;3.77;1.70;;;;;;;;;;4997106;28;20221;-79
2022/11/07 07:48:11;;;;;;;5.60;2.00;;;;;;;;;;4997301;28;20288;-78
2022/11/07 07:50:40;;;;;;;6.70;2.13;;;;;;;;;;4997062;28;20224;-78
2022/11/07 07:53:08;;;;;;;4.77;1.70;;;;;;;;;;4996912;28;20248;-78
2022/11/07 07:55:37;;;;;;;5.17;1.70;;;;;;;;;;4997316;28;20243;-79
2022/11/07 07:58:05;;;;;;;4.30;1.80;;;;;;;;;;4996840;28;20253;-78
2022/11/07 08:00:34;;;;;;;4.50;1.60;;;;;;;;;;4996815;28;20236;-78
2022/11/07 08:03:04;;;;;;;4.63;1.77;;;;;;;;;;4996978;28;20232;-78
2022/11/07 08:05:33;;;;;;;6.93;2.00;;;;;;;;;;4996808;28;20589;-78
2022/11/07 08:08:01;;;;;;;4.57;1.80;;;;;;;;;;4996903;28;20264;-78
2022/11/07 08:10:30;;;;;;;4.47;1.60;;;;;;;;;;4996829;28;20236;-79
2022/11/07 08:13:14;;;;;;;5.90;2.17;;;;;;;;;;4996610;28;20299;-78
2022/11/07 08:15:43;;;;;;;8.07;2.20;;;;;;;;;;4996862;28;20228;-78
2022/11/07 08:18:13;;;;;;;4.10;1.80;;;;;;;;;;4996116;28;20255;-80
2022/11/07 08:20:41;;;;;;;5.43;1.93;;;;;;;;;;4996691;28;20336;-77
2022/11/07 08:23:10;;;;;;;5.80;2.03;;;;;;;;;;4996085;28;20350;-80
2022/11/07 08:25:44;;;;;;;4.03;1.57;;;;;;;;;;4995837;28;20228;-82
2022/11/07 08:28:13;;;;;;;6.30;1.77;;;;;;;;;;4996444;28;20681;-82
2022/11/07 08:30:41;;;;;;;5.83;1.77;;;;;;;;;;4998297;28;20201;-81
2022/11/07 08:33:10;;;;;;;5.20;1.90;;;;;;;;;;4998842;28;20260;-82
2022/11/07 08:35:41;;;;;;;4.73;1.80;;;;;;;;;;5007748;28;20236;-82
2022/11/07 08:38:12;;;;;;;4.17;1.67;;;;;;;;;;5007163;28;20190;-81
2022/11/07 08:40:41;;;;;;;6.40;1.93;;;;;;;;;;5004092;28;20188;-82
2022/11/07 08:43:09;;;;;;;7.27;2.10;;;;;;;;;;5001402;28;20228;-82
2022/11/07 08:45:38;;;;;;;4.90;2.10;;;;;;;;;;4998380;28;20237;-79
2022/11/07 08:48:07;;;;;;;5.97;1.83;;;;;;;;;;4999999;28;20201;-79
2022/11/07 08:50:35;;;;;;;5.23;2.00;;;;;;;;;;4999484;28;20252;-78
2022/11/07 08:53:05;;;;;;;4.80;2.10;;;;;;;;;;5015056;28;20233;-79
2022/11/07 08:55:34;;;;;;;6.87;2.10;;;;;;;;;;5016622;28;20223;-79
2022/11/07 08:58:03;;;;;;;8.93;2.10;;;;;;;;;;5017372;28;20235;-78
2022/11/07 09:00:32;;;;;;;5.17;1.83;;;;;;;;;;5017950;28;20661;-79
2022/11/07 09:03:04;;;;;;;8.13;2.20;;;;;;;;;;5018536;28;20224;-79
2022/11/07 09:05:52;;;;;;;6.23;1.90;;;;;;;;;;5016627;28;20224;-79
2022/11/07 09:08:22;;;;;;;5.33;1.77;;;;;;;;;;5016701;28;20208;-78
2022/11/07 09:11:00;;;;;;;8.10;2.13;;;;;;;;;;5017045;28;20232;-79
2022/11/07 09:13:28;;;;;;;5.50;2.10;;;;;;;;;;5018508;28;20607;-79
2022/11/07 09:16:05;;;;;;;6.57;1.90;;;;;;;;;;5112147;27;20541;-79
2022/11/07 09:18:34;;;;;;;5.43;1.90;;;;;;;;;;5112725;28;20231;-81
2022/11/07 09:21:02;;;;;;;5.97;1.90;;;;;;;;;;5111643;28;20220;-80
2022/11/07 09:23:31;;;;;;;4.20;2.00;;;;;;;;;;5111897;28;20237;-80
2022/11/07 09:26:00;;;;;;;4.60;2.10;;;;;;;;;;5111670;28;20704;-81
2022/11/07 09:28:29;;;;;;;5.47;2.20;;;;;;;;;;5111114;28;20201;-81
2022/11/07 09:30:58;;;;;;;6.67;1.97;;;;;;;;;;5111026;28;20254;-80
2022/11/07 09:33:28;;;;;;;6.93;2.10;;;;;;;;;;5110845;28;20246;-79
2022/11/07 09:36:00;;;;;;;5.03;2.07;;;;;;;;;;5111365;28;20264;-80
2022/11/07 09:38:29;;;;;;;6.83;2.20;;;;;;;;;;5111609;28;20241;-79
2022/11/07 09:41:01;;;;;;;6.57;2.20;;;;;;;;;;5110645;28;20205;-81
2022/11/07 09:43:46;;;;;;;4.70;1.87;;;;;;;;;;5110665;28;20217;-81
2022/11/07 09:46:22;;;;;;;6.00;1.93;;;;;;;;;;5111266;28;20228;-81
2022/11/07 09:48:55;;;;;;;5.90;2.33;;;;;;;;;;5111058;28;20232;-82
2022/11/07 09:51:26;;;;;;;5.23;2.30;;;;;;;;;;5111154;28;20316;-81
2022/11/07 09:53:58;;;;;;;7.13;2.27;;;;;;;;;;5111722;28;20232;-81
2022/11/07 09:56:28;;;;;;;6.53;2.00;;;;;;;;;;5111794;28;20189;-82
2022/11/07 09:58:58;;;;;;;5.17;2.03;;;;;;;;;;5111777;28;20182;-82
2022/11/07 10:01:29;;;;;;;4.77;1.77;;;;;;;;;;5111865;28;20221;-82
2022/11/07 10:03:59;;;;;;;4.77;2.17;;;;;;;;;;5111963;28;20235;-82
2022/11/07 10:06:50;;;;;;;8.00;2.10;;;;;;;;;;5111494;28;20204;-81
2022/11/07 10:09:21;;;;;;;5.73;2.20;;;;;;;;;;5112640;28;20594;-82
2022/11/07 10:11:55;;;;;;;4.17;1.67;;;;;;;;;;5111533;28;20233;-82
2022/11/07 10:14:29;;;;;;;4.57;2.00;;;;;;;;;;5110563;28;20549;-82
2022/11/07 10:17:03;;;;;;;8.57;2.57;;;;;;;;;;5111172;28;20224;-82
2022/11/07 10:19:42;;;;;;;5.27;2.20;;;;;;;;;;5111734;28;20184;-81
2022/11/07 10:22:17;;;;;;;7.10;2.20;;;;;;;;;;5111317;28;20217;-81
2022/11/07 10:24:52;;;;;;;5.70;2.07;;;;;;;;;;5110534;28;20235;-80
2022/11/07 10:27:22;;;;;;;7.30;2.20;;;;;;;;;;5097161;28;20276;-80
2022/11/07 10:29:53;;;;;;;4.57;2.40;;;;;;;;;;5097027;28;20252;-81
2022/11/07 10:32:24;;;;;;;6.73;2.07;;;;;;;;;;5097088;28;20226;-81
2022/11/07 10:34:59;;;;;;;8.43;2.20;;;;;;;;;;5096520;28;20263;-82
2022/11/07 10:37:27;;;;;;;8.90;2.30;;;;;;;;;;5097061;28;20232;-82
2022/11/07 10:39:56;;;;;;;5.77;2.20;;;;;;;;;;5096282;28;20244;-81
2022/11/07 10:42:26;;;;;;;4.90;2.27;;;;;;;;;;5096299;28;20259;-80
2022/11/07 10:44:55;;;;;;;5.67;2.47;;;;;;;;;;5096458;28;20186;-81
2022/11/07 10:47:25;;;;;;;7.23;2.30;;;;;;;;;;5096336;28;20247;-81
2022/11/07 10:49:55;;;;;;;5.00;2.00;;;;;;;;;;5096792;28;20721;-81
2022/11/07 10:52:24;;;;;;;5.67;2.30;;;;;;;;;;5095933;28;20271;-80
2022/11/07 10:55:05;;;;;;;5.77;2.20;;;;;;;;;;5096268;28;20217;-79
2022/11/07 10:57:34;;;;;;;9.50;2.57;;;;;;;;;;5095929;28;20243;-80
2022/11/07 11:00:03;;;;;;;7.70;2.23;;;;;;;;;;5095792;28;20241;-81
2022/11/07 11:02:33;;;;;;;5.03;2.40;;;;;;;;;;5095845;28;20253;-79
2022/11/07 11:05:03;;;;;;;4.77;2.33;;;;;;;;;;5095990;28;20197;-79
2022/11/07 11:07:34;;;;;;;5.10;2.23;;;;;;;;;;5095729;28;20185;-81
2022/11/07 11:10:04;;;;;;;6.20;2.33;;;;;;;;;;5096076;28;20615;-81
2022/11/07 11:12:33;;;;;;;7.20;2.50;;;;;;;;;;5095381;28;20264;-80
2022/11/07 11:15:06;;;;;;;7.17;2.37;;;;;;;;;;5095418;28;20312;-80
2022/11/07 11:17:34;;;;;;;8.23;2.30;;;;;;;;;;5095601;28;20201;-79
2022/11/07 11:20:05;;;;;;;6.73;2.63;;;;;;;;;;5095265;28;20244;-80
2022/11/07 11:22:40;;;;;;;3.67;2.30;;;;;;;;;;5095487;28;20225;-79
2022/11/07 11:25:15;;;;;;;7.93;2.60;;;;;;;;;;5095559;28;20182;-82
2022/11/07 11:27:45;;;;;;;5.77;2.50;;;;;;;;;;5095851;28;20229;-80
2022/11/07 11:30:16;;;;;;;4.77;2.20;;;;;;;;;;5095685;28;20248;-80
2022/11/07 11:32:47;;;;;;;4.43;2.00;;;;;;;;;;5095848;28;20643;-81
2022/11/07 11:35:25;;;;;;;5.20;2.33;;;;;;;;;;5095837;28;20319;-79
2022/11/07 11:37:57;;;;;;;7.43;2.60;;;;;;;;;;5095137;28;20229;-80
2022/11/07 11:40:26;;;;;;;4.97;2.37;;;;;;;;;;5095905;28;20631;-80
2022/11/07 11:42:58;;;;;;;9.37;2.60;;;;;;;;;;5095376;28;20217;-81
2022/11/07 11:45:31;;;;;;;5.77;2.47;;;;;;;;;;5095083;28;20225;-80
2022/11/07 11:48:00;;;;;;;6.37;2.63;;;;;;;;;;5095504;28;20228;-80
2022/11/07 11:50:35;;;;;;;5.37;2.40;;;;;;;;;;5077520;28;20210;-81
2022/11/07 11:53:03;;;;;;;7.57;2.73;;;;;;;;;;5075005;28;20315;-81
2022/11/07 11:55:36;;;;;;;8.90;4.90;;;;;;;;;;5074762;28;20262;-81
2022/11/07 11:58:09;;;;;;;4.67;2.47;;;;;;;;;;5077772;28;20226;-81
2022/11/07 12:00:40;;;;;;;6.60;2.80;;;;;;;;;;5075061;28;20707;-81
2022/11/07 12:03:28;;;;;;;6.33;2.53;;;;;;;;;;5076261;28;20253;-81
2022/11/07 12:06:06;;;;;;;5.90;2.73;;;;;;;;;;5074178;28;20236;-80
2022/11/07 12:08:42;;;;;;;7.33;2.70;;;;;;;;;;5074800;28;20218;-78
2022/11/07 12:11:17;;;;;;;7.33;2.80;;;;;;;;;;5074187;28;20263;-81
2022/11/07 12:13:48;;;;;;;6.47;2.63;;;;;;;;;;5074529;28;20233;-80
2022/11/07 12:16:22;;;;;;;8.27;2.53;;;;;;;;;;5075101;28;20206;-80
2022/11/07 12:18:54;;;;;;;6.33;2.60;;;;;;;;;;5086047;28;20251;-80
2022/11/07 12:21:31;;;;;;;5.57;2.77;;;;;;;;;;5094377;28;20264;-81
2022/11/07 12:24:07;;;;;;;7.10;2.73;;;;;;;;;;5096336;28;20209;-82
2022/11/07 12:26:40;;;;;;;6.67;2.40;;;;;;;;;;5095400;28;20281;-80
2022/11/07 12:29:12;;;;;;;5.30;2.27;;;;;;;;;;5094582;28;20244;-81
2022/11/07 12:31:50;;;;;;;5.10;2.27;;;;;;;;;;5094311;28;20257;-81
2022/11/07 12:34:24;;;;;;;6.10;2.60;;;;;;;;;;5094173;28;20186;-80
2022/11/07 12:36:59;;;;;;;3.67;2.10;;;;;;;;;;5094741;28;20262;-81
2022/11/07 12:39:43;;;;;;;3.80;2.13;;;;;;;;;;5093554;28;20231;-80
2022/11/07 12:42:15;;;;;;;3.70;2.10;;;;;;;;;;5092320;28;20271;-80
2022/11/07 12:44:50;;;;;;;6.00;3.07;;;;;;;;;;5074122;28;20194;-81
2022/11/07 12:47:29;;;;;;;5.47;2.53;;;;;;;;;;5082513;28;20229;-81
2022/11/07 12:50:02;;;;;;;7.17;3.23;;;;;;;;;;5073373;28;20651;-80
2022/11/07 12:52:46;;;;;;;5.33;2.47;;;;;;;;;;5073371;28;20223;-81
2022/11/07 12:55:19;;;;;;;5.20;2.40;;;;;;;;;;5073740;28;20551;-81
2022/11/07 12:57:49;;;;;;;4.23;2.47;;;;;;;;;;5073367;28;20268;-80
2022/11/07 13:00:20;;;;;;;8.23;3.07;;;;;;;;;;5073607;28;20225;-80
2022/11/07 13:03:12;;;;;;;5.30;2.53;;;;;;;;;;5073647;28;20226;-80
2022/11/07 13:05:49;;;;;;;7.13;3.00;;;;;;;;;;5073514;28;20605;-80
2022/11/07 13:08:21;;;;;;;4.07;2.60;;;;;;;;;;5081547;28;20893;-81
2022/11/07 13:10:53;;;;;;;3.90;2.50;;;;;;;;;;5084689;28;20224;-81
2022/11/07 13:13:25;;;;;;;5.00;2.50;;;;;;;;;;5090865;28;20679;-80
2022/11/07 13:15:54;;;;;;;6.67;2.60;;;;;;;;;;5073358;28;20241;-80
2022/11/07 13:18:42;;;;;;;3.90;2.27;;;;;;;;;;5073117;28;20245;-80
2022/11/07 13:21:11;;;;;;;4.83;2.47;;;;;;;;;;5073015;28;20229;-78
2022/11/07 13:23:41;;;;;;;5.27;2.63;;;;;;;;;;5073550;28;20209;-80
2022/11/07 13:26:10;;;;;;;4.90;2.63;;;;;;;;;;5074338;28;20622;-81
2022/11/07 13:28:59;;;;;;;5.50;2.60;;;;;;;;;;5080116;28;20313;-82
2022/11/07 13:31:35;;;;;;;5.27;2.50;;;;;;;;;;5084984;28;20214;-81
2022/11/07 13:34:11;;;;;;;4.10;2.57;;;;;;;;;;5092843;28;20379;-80
2022/11/07 13:36:40;;;;;;;7.17;3.10;;;;;;;;;;5094323;28;20221;-81
2022/11/07 13:39:12;;;;;;;4.83;2.87;;;;;;;;;;5096278;28;20209;-81
2022/11/07 13:41:41;;;;;;;5.60;3.10;;;;;;;;;;5095501;28;20291;-81
2022/11/07 13:44:18;;;;;;;5.77;3.13;;;;;;;;;;5094372;28;20259;-80
2022/11/07 13:46:49;;;;;;;3.50;2.73;;;;;;;;;;5077797;28;20238;-81
2022/11/07 13:49:21;;;;;;;4.33;3.17;;;;;;;;;;5078916;28;20222;-80
2022/11/07 13:51:51;;;;;;;4.73;3.17;;;;;;;;;;5079621;28;20254;-82
2022/11/07 13:54:26;;;;;;;5.90;3.50;;;;;;;;;;5093190;28;20241;-80
2022/11/07 13:56:56;;;;;;;7.40;3.63;;;;;;;;;;5072000;28;20210;-81
2022/11/07 13:59:32;;;;;;;4.77;3.20;;;;;;;;;;5071758;28;20187;-81
2022/11/07 14:02:04;;;;;;;9.73;3.73;;;;;;;;;;5086069;28;20235;-81
2022/11/07 14:04:33;;;;;;;6.70;3.83;;;;;;;;;;5095238;28;20206;-81
2022/11/07 14:07:17;;;;;;;4.17;3.10;;;;;;;;;;5096679;28;20206;-81
2022/11/07 14:09:53;;;;;;;8.03;3.87;;;;;;;;;;5077208;28;20195;-81
2022/11/07 14:12:22;;;;;;;5.37;3.00;;;;;;;;;;5093625;28;20647;-81
2022/11/07 14:14:51;;;;;;;7.80;3.87;;;;;;;;;;5093332;28;20255;-81
2022/11/07 14:17:20;;;;;;;6.47;3.37;;;;;;;;;;5096448;28;20638;-80
2022/11/07 14:19:49;;;;;;;6.30;3.33;;;;;;;;;;5095953;28;20237;-82
2022/11/07 14:22:22;;;;;;;6.87;3.60;;;;;;;;;;5096986;28;20630;-81
2022/11/07 14:24:53;;;;;;;5.83;3.40;;;;;;;;;;5098081;28;20574;-80
2022/11/07 14:27:21;;;;;;;7.13;3.70;;;;;;;;;;5092623;28;20227;-81
2022/11/07 14:29:53;;;;;;;5.90;3.30;;;;;;;;;;5078071;28;20272;-81
2022/11/07 14:32:22;;;;;;;4.57;3.17;;;;;;;;;;5075866;28;20709;-81
2022/11/07 14:34:55;;;;;;;5.67;3.60;;;;;;;;;;5076959;28;20213;-82
2022/11/07 14:37:25;;;;;;;8.17;3.30;;;;;;;;;;5093308;28;20213;-81
2022/11/07 14:39:55;;;;;;;7.77;3.30;;;;;;;;;;5095264;28;20204;-80
2022/11/07 14:42:24;;;;;;;6.57;3.23;;;;;;;;;;5080690;28;20599;-81
2022/11/07 14:44:54;;;;;;;7.00;3.40;;;;;;;;;;5075225;28;20272;-82
2022/11/07 14:47:24;;;;;;;6.03;3.53;;;;;;;;;;5075582;28;20194;-81
2022/11/07 14:49:54;;;;;;;9.80;3.53;;;;;;;;;;5074330;28;20233;-82
2022/11/07 14:52:23;;;;;;;7.20;3.37;;;;;;;;;;5088725;28;20233;-81
2022/11/07 14:54:57;;;;;;;9.37;3.70;;;;;;;;;;5097642;28;20253;-80
2022/11/07 14:57:27;;;;;;;4.90;3.20;;;;;;;;;;5090662;28;20733;-81
2022/11/07 14:59:56;;;;;;;5.47;3.23;;;;;;;;;;5083321;28;20233;-81
2022/11/07 15:02:27;;;;;;;5.47;3.93;;;;;;;;;;5076095;28;20275;-79
2022/11/07 15:04:56;;;;;;;6.50;3.37;;;;;;;;;;5073905;28;20198;-80
2022/11/07 15:07:46;;;;;;;5.93;3.17;;;;;;;;;;5085762;28;20225;-81
2022/11/07 15:10:16;;;;;;;5.87;3.43;;;;;;;;;;5097257;28;20294;-80
2022/11/07 15:12:53;;;;;;;8.07;3.53;;;;;;;;;;5096608;28;20312;-81
2022/11/07 15:15:23;;;;;;;9.13;3.50;;;;;;;;;;5079254;28;20297;-82